Balch Springs, Texas
Current Conditions -  °F | °C
As of 10:10 AM on Friday 28 Nov 2014 (Local Time) from KHQZ Reporting Station
Broken Clouds Broken Clouds  
Wind Chill: 54°   Ceiling: 1700
Heat Index: 54°   Visibility: 10mi
Dew Point: 37°   Wind: 12mph
Humidity: 54%   Direction: 170°S
Pressure: 30.27"   Gusts: NA
Location:  32.73°N, 96.62°W
Report Text: KHQZ 281610Z 17010KT 10SM BKN017 12/03 A3027
Loading
Personal Weather Stations






























Interactive Weather Map New forecast layout! Learn more

10-Day Weather Forecast

Advertisements
Track Severe Weather on mobile